Aeroporto :
LOGIN :

Iscrizione | Disclaimer

   EN    FR    IT 

 










Sommario :    VFR   VFR Marginale   IFR   IFR Intensivo   IFR Molto Intensivo
Visibilità : 
Base nubi : 
>= 8 km
>= 3000ft
5 / 8 km
1000 / 3000 ft
1500m / 5 km
500 / 1000 ft
800 / 1500m
200 / 500 ft
< 800m
< 200 ft
Simboli :   Temporali  Nebbia  Neve Forte  Precipitazioni Forti  Vento > 20 kt
SIGMETs :   Varie  Temporali  Ghiacco  Turbolenza  Onda orograficha  Ceneri Vulcaniche






- Altitudine del aeroporto : 3 ft
- Codice IATA : DHR


EHKD - Den Helder De Kooy

ULTIMO METAR :
  • 221325Z AUTO 31017G27KT 270V350 9999 -RA SCT023 BKN028 BKN034 11/06 Q1014 WHT TEMPO 32020G32KT SCT020CB BKN025

METARs OBSOLETI :
  • 221318Z AUTO 31016KT 270V360 9999 SCT023 SCT027 BKN033 11/06 Q1014 WHT TEMPO 32020G32KT SCT020CB BKN025
  • 221257Z AUTO 31017G28KT 270V010 9999 FEW022 BKN034 OVC041 11/07 Q1014 BLU TEMPO 32020G32KT SCT020CB BKN025
  • 221245Z AUTO 33014KT 280V030 9999 -RA SCT017 BKN021 BKN026 10/07 Q1014 WHT TEMPO 30025G40KT 4000 SHRA RA SCT015 SCT020CB
  • 221233Z AUTO 32015KT 280V360 9999 FEW010 BKN029 OVC032 10/06 Q1013 BLU TEMPO 30025G40KT 4000 SHRA RA SCT015 SCT020CB
  • 221227Z AUTO 32015G29KT 280V360 8000 -RA FEW010 BKN024 BKN029 10/06 Q1013 WHT TEMPO 30025G40KT 4000 SHRA RA SCT015 SCT020CB
  • 221200Z AUTO 31015KT 280V360 9999 FEW024 SCT035 BKN039 11/07 Q1013 BLU TEMPO 30025G40KT 4000 SHRA RA SCT015 SCT020CB
  • 221155Z AUTO 32017G29KT 280V360 9999 +DZRA SCT023 BKN027 OVC036 11/07 Q1013 WHT TEMPO 30025G40KT 4000 SHRA RA SCT015 SCT020CB
  • 221125Z AUTO 30016G28KT 260V340 9999 FEW015CB SCT030 BKN043 11/07 Q1012 BLU TEMPO 30025G40KT 4000 SHRA RA SCT015 SCT020CB
  • 221057Z AUTO 31015KT 270V350 9999 -RADZ FEW015CB SCT032 BKN038 11/07 Q1012 BLU TEMPO 30025G40KT 4000 SHRA RA SCT015 SCT020CB
  • 221045Z AUTO 30017G28KT 260V340 5000 RA BKN015CB BKN018 BKN023 10/08 Q1011 WHT TEMPO 30025G40KT 4000 SHRA RA SCT015 SCT020CB
  • 221030Z AUTO 29024G39KT 240V330 5000 -RA FEW015CB SCT022 BKN030 11/07 Q1011 WHT TEMPO 30025G40KT 4000 SHRA RA SCT015 SCT020CB

TAF TAF EHKD
Valido dal 22 a 13 ore il 23 a 01 ore UTC


221237Z 2213/2301 32015G25KT 9999 FEW018 SCT025
TEMPO 2213/2215 31020G35KT SCT020CB
BECMG 2223/2301 29008KT



MetMap, La meteo Aeronautica in un colpo d'occhio ! - Copyright ORBIFLY Dicembre 2007 - Disclaimer

ORBIFLY MET'MAP TEAM :

Programmazione e sviluppo : Alexandra Zaïnal
Concezione : Baudouin d'Aumeries
Aiuto per la programmazione : Marc-Olivier Méhu
Supporto tecnico e logistico : Manuel Goepfert
Aiuto per la traduzione : Arnaldo La Scala

Contatto : metmap@orbifly.com




FONTI E CREDITI :

   NOAA